Time;durP1;ratioP1;P1;durP2;ratioP2;P2;SDS_P1;SDS_P2;PMS_P1;PMS_P2;Temp;Humidity;BMP_temperature;BMP_pressure;BME280_temperature;BME280_humidity;BME280_pressure;Samples;Min_cycle;Max_cycle;Signal;HPM_P1;HPM_P2
2022/10/30 00:00:45;;;;;;;16.67;10.40;;;13.80;99.90;;;;;;5052770;28;20268;-85
2022/10/30 00:03:12;;;;;;;21.33;11.13;;;13.80;99.90;;;;;;5053037;28;20182;-83
2022/10/30 00:05:48;;;;;;;20.47;10.70;;;13.80;99.90;;;;;;5053028;28;20771;-84
2022/10/30 00:08:15;;;;;;;19.23;11.90;;;13.80;99.90;;;;;;5052963;28;20419;-84
2022/10/30 00:10:41;;;;;;;13.37;9.00;;;13.80;99.90;;;;;;5053265;28;20410;-83
2022/10/30 00:13:08;;;;;;;14.90;8.67;;;13.80;99.90;;;;;;5056793;28;20780;-82
2022/10/30 00:15:34;;;;;;;13.63;10.47;;;13.80;99.90;;;;;;5056389;28;20415;-83
2022/10/30 00:17:59;;;;;;;14.40;10.17;;;13.80;99.90;;;;;;5056677;28;20497;-81
2022/10/30 00:20:25;;;;;;;15.23;10.80;;;13.70;99.90;;;;;;5056668;28;20414;-83
2022/10/30 00:22:50;;;;;;;15.43;9.17;;;13.70;99.90;;;;;;5056477;28;20182;-81
2022/10/30 00:25:16;;;;;;;20.07;10.47;;;13.70;99.90;;;;;;5056534;28;20172;-82
2022/10/30 00:27:42;;;;;;;13.47;9.57;;;13.70;99.90;;;;;;5056483;28;20175;-82
2022/10/30 00:30:08;;;;;;;18.77;10.13;;;13.70;99.90;;;;;;5056034;28;20179;-82
2022/10/30 00:32:33;;;;;;;16.23;9.67;;;13.60;99.90;;;;;;5056383;28;20180;-84
2022/10/30 00:34:59;;;;;;;22.20;10.30;;;13.70;99.90;;;;;;5056390;28;20418;-83
2022/10/30 00:37:24;;;;;;;16.43;10.60;;;13.60;99.90;;;;;;5056497;28;20231;-82
2022/10/30 00:39:50;;;;;;;14.17;8.20;;;13.60;99.90;;;;;;5056219;28;20205;-81
2022/10/30 00:42:16;;;;;;;18.43;8.70;;;13.50;99.90;;;;;;5056274;28;20187;-81
2022/10/30 00:44:48;;;;;;;15.80;8.73;;;13.50;99.90;;;;;;5055732;28;20168;-82
2022/10/30 00:47:13;;;;;;;17.10;10.37;;;13.50;99.90;;;;;;5056357;28;20400;-81
2022/10/30 00:49:52;;;;;;;15.73;10.10;;;13.50;99.90;;;;;;5056033;28;20481;-81
2022/10/30 00:52:23;;;;;;;15.23;8.80;;;13.50;99.90;;;;;;5056232;28;20254;-82
2022/10/30 00:54:51;;;;;;;15.93;9.97;;;13.40;99.90;;;;;;5056141;28;20423;-81
2022/10/30 00:57:17;;;;;;;18.13;8.60;;;13.40;99.90;;;;;;5056184;28;20541;-83
2022/10/30 00:59:43;;;;;;;15.10;8.97;;;13.40;99.90;;;;;;5055748;28;20429;-81
2022/10/30 01:02:09;;;;;;;15.70;9.77;;;13.30;99.90;;;;;;5055622;28;20940;-81
2022/10/30 01:04:37;;;;;;;17.67;8.40;;;13.30;99.90;;;;;;5055791;28;20416;-81
2022/10/30 01:07:10;;;;;;;12.40;8.37;;;13.30;99.90;;;;;;5055845;28;20203;-80
2022/10/30 01:09:38;;;;;;;17.17;9.13;;;13.30;99.90;;;;;;5055758;28;20770;-82
2022/10/30 01:12:04;;;;;;;18.80;9.90;;;13.30;99.90;;;;;;5055788;28;20416;-81
2022/10/30 01:14:30;;;;;;;16.50;8.77;;;13.30;99.90;;;;;;5054915;28;20426;-83
2022/10/30 01:17:15;;;;;;;14.17;9.50;;;13.20;99.90;;;;;;5055438;28;20440;-82
2022/10/30 01:20:06;;;;;;;9.27;7.23;;;13.10;99.90;;;;;;5055576;28;20743;-83
2022/10/30 01:22:40;;;;;;;12.80;7.03;;;13.10;99.90;;;;;;5054318;28;20420;-81
2022/10/30 01:25:23;;;;;;;15.27;9.60;;;13.20;99.90;;;;;;5055427;28;20409;-81
2022/10/30 01:28:20;;;;;;;11.03;6.80;;;13.30;99.90;;;;;;5055318;28;20461;-82
2022/10/30 01:30:46;;;;;;;11.53;7.40;;;13.20;99.90;;;;;;5054819;28;20487;-81
2022/10/30 01:33:20;;;;;;;8.60;6.80;;;13.10;99.90;;;;;;5055220;28;20441;-81
2022/10/30 01:36:16;;;;;;;8.70;7.47;;;13.20;99.90;;;;;;5055135;28;20170;-82
2022/10/30 01:38:49;;;;;;;11.10;7.73;;;13.00;99.90;;;;;;5055246;28;20953;-81
2022/10/30 01:41:14;;;;;;;11.67;6.93;;;13.00;99.90;;;;;;5037774;28;20455;-83
2022/10/30 01:43:42;;;;;;;10.60;7.67;;;13.00;99.90;;;;;;5055188;28;20941;-81
2022/10/30 01:46:27;;;;;;;11.43;6.27;;;13.10;99.90;;;;;;5054932;28;20655;-85
2022/10/30 01:49:14;;;;;;;10.00;6.07;;;13.10;99.90;;;;;;5055067;28;20410;-83
2022/10/30 01:52:04;;;;;;;8.37;5.63;;;13.00;99.90;;;;;;5054866;28;20421;-83
2022/10/30 01:54:55;;;;;;;11.03;7.87;;;13.10;99.90;;;;;;5054790;28;20426;-81
2022/10/30 01:57:50;;;;;;;9.83;6.33;;;13.10;99.90;;;;;;5054821;28;20530;-81
2022/10/30 02:00:16;;;;;;;11.60;7.57;;;13.30;99.90;;;;;;5054408;28;20411;-81
2022/10/30 02:02:42;;;;;;;12.60;7.33;;;13.40;99.90;;;;;;5054590;28;20410;-84
2022/10/30 02:05:10;;;;;;;12.87;7.93;;;13.40;99.90;;;;;;5054566;28;20414;-81
2022/10/30 02:07:39;;;;;;;11.37;6.70;;;13.40;99.90;;;;;;5054671;28;20496;-82
2022/10/30 02:10:05;;;;;;;11.33;7.70;;;13.40;99.90;;;;;;5054480;28;20450;-82
2022/10/30 02:12:30;;;;;;;15.00;8.33;;;13.50;99.90;;;;;;5054464;28;20834;-81
2022/10/30 02:14:59;;;;;;;11.60;8.30;;;13.50;99.90;;;;;;5054016;28;20770;-81
2022/10/30 02:17:25;;;;;;;11.30;6.97;;;13.40;99.90;;;;;;5053983;28;20214;-81
2022/10/30 02:19:51;;;;;;;11.37;7.20;;;13.40;99.90;;;;;;5054335;28;20413;-80
2022/10/30 02:22:17;;;;;;;9.40;6.53;;;13.30;99.90;;;;;;5054211;28;20428;-82
2022/10/30 02:24:43;;;;;;;11.13;6.83;;;13.30;99.90;;;;;;5054256;28;20262;-80
2022/10/30 02:27:09;;;;;;;8.00;5.70;;;13.20;99.90;;;;;;5054295;28;20181;-82
2022/10/30 02:29:34;;;;;;;8.37;6.10;;;13.00;99.90;;;;;;5053772;28;20423;-83
2022/10/30 02:32:00;;;;;;;10.60;6.10;;;12.90;99.90;;;;;;5054097;28;20281;-83
2022/10/30 02:34:26;;;;;;;11.10;6.40;;;13.10;99.90;;;;;;5053786;28;20537;-82
2022/10/30 02:36:51;;;;;;;9.80;5.63;;;13.00;99.90;;;;;;5054151;28;20418;-82
2022/10/30 02:39:18;;;;;;;12.13;7.03;;;12.90;99.90;;;;;;5054020;28;20205;-82
2022/10/30 02:41:44;;;;;;;8.43;5.13;;;13.00;99.90;;;;;;5054021;28;20176;-81
2022/10/30 02:44:09;;;;;;;10.30;5.87;;;13.10;99.90;;;;;;5036091;28;20430;-81
2022/10/30 02:46:35;;;;;;;11.53;6.27;;;13.00;99.90;;;;;;5053434;28;20221;-83
2022/10/30 02:49:01;;;;;;;10.63;6.43;;;13.10;99.90;;;;;;5053699;28;20199;-84
2022/10/30 02:51:27;;;;;;;10.63;5.87;;;13.10;99.90;;;;;;5053509;28;20223;-81
2022/10/30 02:53:52;;;;;;;16.00;7.27;;;13.10;99.90;;;;;;5053645;28;20790;-81
2022/10/30 02:56:18;;;;;;;10.33;6.07;;;13.10;99.90;;;;;;5053764;28;20588;-82
2022/10/30 02:58:43;;;;;;;10.87;6.23;;;13.10;99.90;;;;;;5053646;28;20211;-82
2022/10/30 03:01:15;;;;;;;10.07;5.63;;;13.00;99.90;;;;;;5053229;28;20167;-82
2022/10/30 03:03:41;;;;;;;11.90;7.17;;;12.90;99.90;;;;;;5053419;28;20170;-81
2022/10/30 03:06:09;;;;;;;13.30;6.70;;;12.90;99.90;;;;;;5053556;28;20404;-82
2022/10/30 03:08:35;;;;;;;11.73;7.07;;;12.90;99.90;;;;;;5053425;28;20472;-82
2022/10/30 03:11:07;;;;;;;11.20;7.60;;;13.00;99.90;;;;;;5053336;28;20518;-81
2022/10/30 03:13:33;;;;;;;11.20;6.87;;;13.00;99.90;;;;;;5052531;28;20424;-82
2022/10/30 03:16:01;;;;;;;13.50;6.03;;;13.00;99.90;;;;;;5052979;28;20410;-81
2022/10/30 03:18:29;;;;;;;13.90;6.20;;;12.80;99.90;;;;;;5053266;28;20494;-81
2022/10/30 03:21:00;;;;;;;13.00;6.63;;;12.90;99.90;;;;;;5053171;28;20435;-82
2022/10/30 03:23:27;;;;;;;15.60;7.93;;;12.80;99.90;;;;;;5053206;28;20419;-82
2022/10/30 03:25:56;;;;;;;14.67;6.50;;;12.80;99.90;;;;;;5053142;28;20419;-81
2022/10/30 03:28:24;;;;;;;12.80;8.30;;;12.80;99.90;;;;;;5053241;28;20425;-81
2022/10/30 03:30:56;;;;;;;9.67;6.50;;;12.80;99.90;;;;;;5052763;28;20484;-82
2022/10/30 03:33:22;;;;;;;11.23;7.97;;;12.80;99.90;;;;;;5053111;28;20469;-82
2022/10/30 03:35:47;;;;;;;14.57;8.00;;;12.90;99.90;;;;;;5053312;28;20759;-82
2022/10/30 03:38:13;;;;;;;20.20;9.77;;;12.80;99.90;;;;;;5052963;28;20222;-81
2022/10/30 03:40:41;;;;;;;15.03;8.90;;;12.90;99.90;;;;;;5035336;28;20656;-82
2022/10/30 03:43:07;;;;;;;14.37;6.97;;;12.80;99.90;;;;;;5052990;28;20265;-82
2022/10/30 03:45:33;;;;;;;12.37;8.30;;;12.80;99.90;;;;;;5051869;28;20502;-82
2022/10/30 03:48:00;;;;;;;11.70;7.30;;;12.90;99.90;;;;;;5052831;28;20227;-81
2022/10/30 03:50:26;;;;;;;10.30;7.60;;;12.80;99.90;;;;;;5063660;28;20468;-82
2022/10/30 03:52:53;;;;;;;11.07;7.63;;;12.80;99.90;;;;;;5055417;28;20420;-82
2022/10/30 03:55:19;;;;;;;11.73;6.47;;;12.70;99.90;;;;;;5037158;28;20243;-82
2022/10/30 03:57:44;;;;;;;9.13;5.70;;;12.60;99.90;;;;;;5054887;28;20973;-82
2022/10/30 04:00:11;;;;;;;9.87;6.80;;;12.60;99.90;;;;;;5052844;28;20171;-81
2022/10/30 04:02:36;;;;;;;10.90;6.57;;;12.40;99.90;;;;;;5052270;28;20209;-81
2022/10/30 04:05:02;;;;;;;9.17;6.30;;;12.50;99.90;;;;;;5035227;28;20951;-81
2022/10/30 04:07:29;;;;;;;11.37;4.97;;;12.60;99.90;;;;;;5052575;28;20169;-81
2022/10/30 04:09:54;;;;;;;6.70;4.27;;;12.40;99.90;;;;;;5052858;28;20227;-82
2022/10/30 04:12:20;;;;;;;12.37;4.80;;;12.20;99.90;;;;;;5052696;28;20913;-82
2022/10/30 04:14:45;;;;;;;9.97;5.43;;;12.10;99.90;;;;;;5052342;28;20232;-82
2022/10/30 04:17:11;;;;;;;7.90;5.00;;;12.00;99.90;;;;;;5053547;28;20178;-82
2022/10/30 04:19:37;;;;;;;8.50;4.90;;;11.90;99.90;;;;;;5053126;28;20182;-81
2022/10/30 04:22:02;;;;;;;8.33;4.70;;;11.90;99.90;;;;;;5052732;28;20170;-81
2022/10/30 04:24:28;;;;;;;9.87;6.27;;;11.90;99.90;;;;;;5052911;28;20618;-82
2022/10/30 04:26:53;;;;;;;11.80;6.17;;;12.20;99.90;;;;;;5052812;28;20176;-81
2022/10/30 04:29:19;;;;;;;13.13;6.80;;;12.40;99.90;;;;;;5052500;28;20591;-83
2022/10/30 04:31:44;;;;;;;9.87;5.30;;;12.50;99.90;;;;;;5034800;28;20177;-81
2022/10/30 04:34:11;;;;;;;7.90;5.10;;;12.40;99.90;;;;;;5052644;28;20180;-81
2022/10/30 04:36:36;;;;;;;14.23;4.97;;;12.40;99.90;;;;;;5052555;28;20171;-82
2022/10/30 04:39:02;;;;;;;13.30;7.30;;;12.40;99.90;;;;;;5052642;28;20551;-81
2022/10/30 04:41:30;;;;;;;5.53;4.30;;;12.30;99.90;;;;;;5052510;28;20166;-82
2022/10/30 04:43:56;;;;;;;7.30;3.80;;;12.00;99.90;;;;;;5052642;28;20557;-81
2022/10/30 04:46:21;;;;;;;7.17;3.93;;;11.90;99.90;;;;;;5052156;28;20417;-82
2022/10/30 04:48:47;;;;;;;10.37;5.67;;;11.80;99.90;;;;;;5052578;28;20182;-82
2022/10/30 04:51:12;;;;;;;11.53;6.40;;;12.10;99.90;;;;;;5052227;28;20221;-81
2022/10/30 04:53:38;;;;;;;14.53;5.60;;;12.40;99.90;;;;;;5052643;28;20177;-82
2022/10/30 04:56:04;;;;;;;12.70;7.27;;;12.30;99.90;;;;;;5052652;28;20184;-83
2022/10/30 04:58:30;;;;;;;8.67;5.30;;;12.30;99.90;;;;;;5055514;28;20212;-82
2022/10/30 05:00:59;;;;;;;13.80;5.57;;;12.30;99.90;;;;;;5055788;28;20413;-80
2022/10/30 05:03:24;;;;;;;6.30;3.87;;;12.20;99.90;;;;;;5055702;28;20174;-81
2022/10/30 05:06:00;;;;;;;10.17;6.60;;;12.20;99.90;;;;;;5055769;28;20411;-80
2022/10/30 05:08:26;;;;;;;11.17;5.80;;;12.20;99.90;;;;;;5055821;28;20307;-81
2022/10/30 05:10:52;;;;;;;7.60;5.97;;;12.30;99.90;;;;;;5055588;28;20410;-81
2022/10/30 05:13:18;;;;;;;7.60;5.27;;;12.30;99.90;;;;;;5055837;28;20498;-81
2022/10/30 05:15:43;;;;;;;11.33;6.73;;;12.30;99.90;;;;;;5035927;28;20421;-81
2022/10/30 05:18:12;;;;;;;9.83;5.10;;;12.30;99.90;;;;;;5035598;28;20223;-81
2022/10/30 05:20:40;;;;;;;11.33;6.10;;;12.10;99.90;;;;;;5035599;28;20170;-81
2022/10/30 05:23:06;;;;;;;10.30;4.40;;;12.20;99.90;;;;;;5035591;28;20518;-81
2022/10/30 05:25:31;;;;;;;6.90;5.60;;;12.10;99.90;;;;;;5035620;28;20496;-81
2022/10/30 05:27:58;;;;;;;7.70;5.30;;;12.10;99.90;;;;;;5035502;28;20170;-82
2022/10/30 05:30:26;;;;;;;10.30;5.13;;;11.90;99.90;;;;;;5035071;28;20172;-81
2022/10/30 05:32:57;;;;;;;8.67;5.40;;;11.80;99.90;;;;;;5035615;28;20412;-80
2022/10/30 05:35:23;;;;;;;10.17;4.90;;;11.70;99.90;;;;;;5018017;28;20463;-82
2022/10/30 05:37:48;;;;;;;9.67;5.00;;;11.70;99.90;;;;;;5035143;28;20465;-81
2022/10/30 05:40:14;;;;;;;8.70;4.70;;;11.70;99.90;;;;;;5017364;28;20677;-81
2022/10/30 05:42:47;;;;;;;9.03;6.30;;;11.60;99.90;;;;;;5035170;28;20178;-80
2022/10/30 05:45:13;;;;;;;6.50;5.27;;;11.60;99.90;;;;;;5034634;28;20655;-81
2022/10/30 05:47:39;;;;;;;7.30;5.20;;;11.60;99.90;;;;;;5034898;28;20436;-81
2022/10/30 05:50:06;;;;;;;11.23;5.60;;;11.80;99.90;;;;;;5034777;28;20464;-81
2022/10/30 05:52:31;;;;;;;7.27;3.83;;;11.70;99.90;;;;;;5034882;28;20415;-81
2022/10/30 05:54:57;;;;;;;10.03;3.80;;;11.50;99.90;;;;;;5034951;28;20948;-82
2022/10/30 05:57:22;;;;;;;8.23;4.07;;;11.40;99.90;;;;;;5034881;28;20174;-81
2022/10/30 05:59:48;;;;;;;9.20;5.13;;;11.50;99.90;;;;;;5034437;28;20240;-81
2022/10/30 06:02:15;;;;;;;9.37;5.67;;;11.70;99.90;;;;;;5034635;28;20188;-81
2022/10/30 06:04:40;;;;;;;8.20;5.13;;;11.80;99.90;;;;;;5034662;28;20175;-80
2022/10/30 06:07:06;;;;;;;8.50;5.40;;;11.90;99.90;;;;;;5034650;28;20894;-81
2022/10/30 06:09:31;;;;;;;8.70;5.33;;;11.90;99.90;;;;;;5033945;28;20182;-80
2022/10/30 06:11:57;;;;;;;10.37;6.00;;;11.90;99.90;;;;;;5034548;28;20227;-81
2022/10/30 06:14:23;;;;;;;6.00;4.13;;;11.80;99.90;;;;;;5034289;28;20186;-81
2022/10/30 06:16:48;;;;;;;8.80;5.10;;;11.70;99.90;;;;;;5034504;28;20179;-80
2022/10/30 06:19:14;;;;;;;8.07;5.57;;;11.50;99.90;;;;;;5034385;28;20719;-81
2022/10/30 06:21:39;;;;;;;9.80;5.30;;;11.40;99.90;;;;;;5034303;28;20647;-80
2022/10/30 06:24:05;;;;;;;9.20;4.33;;;11.30;99.90;;;;;;5034365;28;20581;-80
2022/10/30 06:26:31;;;;;;;7.20;5.00;;;11.30;99.90;;;;;;5034737;28;20177;-80
2022/10/30 06:28:56;;;;;;;7.63;5.00;;;11.30;99.90;;;;;;5033990;28;20167;-81
2022/10/30 06:31:22;;;;;;;5.27;3.97;;;11.30;99.90;;;;;;5034379;28;20172;-80
2022/10/30 06:33:47;;;;;;;6.70;4.90;;;11.30;99.90;;;;;;5034183;28;20673;-81
2022/10/30 06:36:13;;;;;;;8.07;4.17;;;11.30;99.90;;;;;;5034258;28;20669;-80
2022/10/30 06:38:38;;;;;;;9.07;4.37;;;11.40;99.90;;;;;;5034011;28;20211;-80
2022/10/30 06:41:04;;;;;;;7.73;4.70;;;11.40;99.90;;;;;;5034026;28;20208;-80
2022/10/30 06:43:29;;;;;;;5.43;3.83;;;11.40;99.90;;;;;;5033962;28;20206;-79
2022/10/30 06:45:57;;;;;;;7.53;5.93;;;11.40;99.90;;;;;;5033591;28;20181;-78
2022/10/30 06:48:22;;;;;;;12.53;6.60;;;11.50;99.90;;;;;;5033808;28;20249;-79
2022/10/30 06:50:54;;;;;;;10.80;6.20;;;11.80;99.90;;;;;;5033463;28;20462;-79
2022/10/30 06:53:19;;;;;;;8.10;5.80;;;12.00;99.90;;;;;;5033760;28;20663;-80
2022/10/30 06:55:56;;;;;;;8.40;6.03;;;12.00;99.90;;;;;;5033717;28;20410;-80
2022/10/30 06:58:22;;;;;;;16.77;5.57;;;12.10;99.90;;;;;;5033713;28;20264;-80
2022/10/30 07:00:47;;;;;;;9.50;5.67;;;12.30;99.90;;;;;;5033414;28;20413;-80
2022/10/30 07:03:13;;;;;;;13.77;6.87;;;12.30;99.90;;;;;;5033622;28;20489;-80
2022/10/30 07:05:38;;;;;;;9.43;6.10;;;12.40;99.90;;;;;;5033623;28;20534;-80
2022/10/30 07:08:04;;;;;;;10.10;5.93;;;12.60;99.90;;;;;;5033465;28;20221;-79
2022/10/30 07:10:30;;;;;;;11.33;5.87;;;12.60;99.90;;;;;;5033493;28;20182;-82
2022/10/30 07:12:57;;;;;;;7.20;5.37;;;12.70;99.90;;;;;;5033498;28;20176;-80
2022/10/30 07:15:23;;;;;;;11.70;5.27;;;12.80;99.90;;;;;;5033110;28;20283;-80
2022/10/30 07:17:57;;;;;;;8.73;5.43;;;12.80;99.90;;;;;;5033257;28;20551;-81
2022/10/30 07:20:26;;;;;;;7.77;5.10;;;12.90;99.90;;;;;;5032508;28;20187;-80
2022/10/30 07:22:52;;;;;;;10.20;5.23;;;13.10;99.90;;;;;;5033256;28;20415;-81
2022/10/30 07:25:17;;;;;;;8.80;4.33;;;13.10;99.90;;;;;;5033287;28;20879;-81
2022/10/30 07:27:44;;;;;;;7.43;5.20;;;13.10;99.90;;;;;;5033208;28;20517;-80
2022/10/30 07:30:14;;;;;;;8.60;5.00;;;13.20;99.90;;;;;;5032947;28;20177;-81
2022/10/30 07:32:41;;;;;;;8.40;4.97;;;13.20;99.90;;;;;;5033098;28;20403;-82
2022/10/30 07:35:07;;;;;;;10.70;5.73;;;13.30;99.90;;;;;;5033253;28;20418;-81
2022/10/30 07:37:33;;;;;;;8.93;5.50;;;13.40;99.90;;;;;;5032941;28;20464;-82
2022/10/30 07:39:58;;;;;;;7.60;4.90;;;13.50;99.90;;;;;;5033139;28;20907;-82
2022/10/30 07:42:24;;;;;;;10.77;5.23;;;13.60;99.90;;;;;;5033138;28;20176;-83
2022/10/30 07:44:49;;;;;;;5.20;3.90;;;13.70;99.90;;;;;;5031519;28;20230;-82
2022/10/30 07:47:15;;;;;;;12.40;5.50;;;13.80;99.90;;;;;;5033109;28;20558;-83
2022/10/30 07:49:40;;;;;;;8.00;5.67;;;13.80;99.90;;;;;;5032814;28;20266;-84
2022/10/30 07:52:06;;;;;;;6.87;4.20;;;13.90;99.90;;;;;;5032898;28;20184;-81
2022/10/30 07:54:31;;;;;;;8.57;4.97;;;13.90;99.90;;;;;;5032987;28;20173;-82
2022/10/30 07:56:57;;;;;;;9.23;5.40;;;14.10;99.90;;;;;;5032923;28;20183;-82
2022/10/30 07:59:23;;;;;;;7.70;5.27;;;14.30;99.90;;;;;;5032482;28;20721;-82
2022/10/30 08:01:49;;;;;;;8.47;5.37;;;14.40;99.90;;;;;;5032800;28;20412;-82
2022/10/30 08:04:14;;;;;;;6.13;4.57;;;14.90;99.90;;;;;;5032817;28;20428;-82
2022/10/30 08:06:40;;;;;;;7.13;4.10;;;15.60;99.90;;;;;;5032838;28;20647;-82
2022/10/30 08:09:05;;;;;;;5.87;3.67;;;16.30;99.90;;;;;;5032854;28;20174;-82
2022/10/30 08:11:31;;;;;;;8.90;4.43;;;16.60;99.90;;;;;;5032698;28;20172;-82
2022/10/30 08:13:56;;;;;;;5.27;3.27;;;16.70;99.90;;;;;;5032433;28;20177;-81
2022/10/30 08:16:23;;;;;;;6.03;4.40;;;16.30;99.90;;;;;;5032525;28;20170;-82
2022/10/30 08:18:48;;;;;;;5.97;4.80;;;16.70;99.90;;;;;;5041628;28;20534;-81
2022/10/30 08:21:14;;;;;;;4.70;3.83;;;16.80;99.90;;;;;;5040561;28;20502;-82
2022/10/30 08:23:39;;;;;;;7.90;4.27;;;17.00;99.90;;;;;;5043100;28;20181;-83
2022/10/30 08:26:05;;;;;;;6.80;3.50;;;17.30;99.90;;;;;;5041646;28;20172;-82
2022/10/30 08:28:30;;;;;;;6.60;3.57;;;17.80;1.00;;;;;;5040132;28;20272;-82
2022/10/30 08:30:57;;;;;;;5.20;3.60;;;18.70;99.90;;;;;;5040228;28;20196;-81
2022/10/30 08:33:23;;;;;;;7.47;5.23;;;19.40;46.50;;;;;;5045019;28;20209;-82
2022/10/30 08:35:50;;;;;;;7.63;3.60;;;20.20;1.00;;;;;;5043187;28;20456;-85
2022/10/30 08:38:16;;;;;;;4.43;2.60;;;20.60;1.00;;;;;;5035556;28;20611;-82
2022/10/30 08:40:42;;;;;;;7.33;4.30;;;21.30;99.90;;;;;;5035653;28;20412;-82
2022/10/30 08:43:07;;;;;;;6.00;3.83;;;21.50;1.00;;;;;;5035555;28;20905;-82
2022/10/30 08:45:33;;;;;;;4.63;2.80;;;21.80;1.00;;;;;;5035235;28;20178;-82
2022/10/30 08:48:02;;;;;;;5.57;3.70;;;22.10;1.00;;;;;;5035585;28;20178;-82
2022/10/30 08:50:28;;;;;;;5.03;3.27;;;22.20;1.00;;;;;;5035281;28;20686;-83
2022/10/30 08:52:53;;;;;;;6.63;2.20;;;20.80;1.00;;;;;;5039076;28;20416;-84
2022/10/30 08:55:19;;;;;;;6.33;3.40;;;19.90;1.00;;;;;;5038933;28;20483;-83
2022/10/30 08:57:45;;;;;;;6.07;2.90;;;19.70;99.90;;;;;;5023317;28;20305;-84
2022/10/30 09:00:11;;;;;;;5.40;2.77;;;20.10;99.90;;;;;;5034721;28;20178;-82
2022/10/30 09:02:40;;;;;;;4.20;2.40;;;20.10;99.90;;;;;;5035211;28;20590;-83
2022/10/30 09:05:07;;;;;;;6.30;3.70;;;21.10;1.00;;;;;;5035462;28;20421;-83
2022/10/30 09:07:33;;;;;;;6.47;4.20;;;22.30;1.00;;;;;;5035255;28;20443;-82
2022/10/30 09:09:59;;;;;;;7.33;3.90;;;22.90;1.00;;;;;;5034941;28;20429;-83
2022/10/30 09:12:24;;;;;;;5.00;3.23;;;23.00;1.00;;;;;;5035466;28;20517;-83
2022/10/30 09:14:50;;;;;;;7.90;3.90;;;23.30;1.00;;;;;;5034938;28;20209;-84
2022/10/30 09:17:15;;;;;;;7.50;4.27;;;23.10;99.90;;;;;;5035349;28;20170;-84
2022/10/30 09:19:41;;;;;;;4.80;3.40;;;23.40;99.90;;;;;;5035293;28;20178;-83
2022/10/30 09:22:06;;;;;;;7.87;2.97;;;23.40;99.90;;;;;;5035276;28;20539;-84
2022/10/30 09:24:32;;;;;;;5.80;3.57;;;23.50;99.90;;;;;;5035109;28;20183;-84
2022/10/30 09:26:57;;;;;;;6.17;3.50;;;23.80;99.90;;;;;;5035172;28;20257;-84
2022/10/30 09:29:23;;;;;;;4.00;2.93;;;24.20;99.90;;;;;;5034856;28;20178;-83
2022/10/30 09:31:48;;;;;;;7.57;3.63;;;24.20;99.90;;;;;;5035125;28;20185;-83
2022/10/30 09:34:14;;;;;;;7.47;4.53;;;24.20;99.90;;;;;;5039969;28;20190;-82
2022/10/30 09:36:42;;;;;;;5.30;3.80;;;24.60;99.90;;;;;;5043377;28;20178;-84
2022/10/30 09:39:08;;;;;;;6.67;4.10;;;24.60;99.90;;;;;;5042847;28;20229;-83
2022/10/30 09:41:49;;;;;;;10.67;4.17;;;24.20;99.90;;;;;;5039309;28;20417;-82
2022/10/30 09:44:36;;;;;;;9.50;3.87;;;24.00;99.90;;;;;;5034896;28;20202;-83
2022/10/30 09:47:19;;;;;;;8.00;3.80;;;23.80;99.90;;;;;;5035025;28;20430;-83
2022/10/30 09:50:17;;;;;;;8.33;4.23;;;23.80;99.90;;;;;;5034563;28;20467;-82
2022/10/30 09:53:14;;;;;;;9.07;5.07;;;22.70;1.00;;;;;;5034587;28;20421;-83
2022/10/30 09:56:00;;;;;;;6.67;3.83;;;22.00;1.00;;;;;;5037258;28;20916;-85
2022/10/30 09:58:52;;;;;;;7.10;3.80;;;22.30;99.90;;;;;;5040359;28;20547;-82
2022/10/30 10:01:46;;;;;;;6.63;3.60;;;22.90;1.00;;;;;;5043824;28;20418;-84
2022/10/30 10:04:43;;;;;;;5.80;4.10;;;23.50;1.00;;;;;;5039019;28;20447;-82
2022/10/30 10:07:28;;;;;;;8.33;3.80;;;24.20;99.90;;;;;;5041000;28;20417;-83
2022/10/30 10:10:12;;;;;;;7.57;4.53;;;23.70;99.90;;;;;;5040184;28;20419;-82
2022/10/30 10:12:42;;;;;;;6.87;4.03;;;24.00;99.90;;;;;;5041920;28;20493;-83
2022/10/30 10:15:20;;;;;;;6.90;3.97;;;25.00;99.90;;;;;;5040404;28;20405;-82
2022/10/30 10:17:46;;;;;;;5.60;4.20;;;25.30;99.90;;;;;;5040042;28;20522;-83
2022/10/30 10:20:38;;;;;;;9.47;5.00;;;25.80;99.90;;;;;;5042943;28;20776;-83
2022/10/30 10:23:18;;;;;;;6.20;3.00;;;25.80;99.90;;;;;;5043966;28;20983;-83
2022/10/30 10:25:51;;;;;;;10.50;4.90;;;26.00;99.90;;;;;;5039238;28;20789;-83
2022/10/30 10:28:41;;;;;;;6.53;3.87;;;26.00;99.90;;;;;;5041805;28;20738;-82
2022/10/30 10:31:14;;;;;;;7.70;4.33;;;26.20;99.90;;;;;;5039681;28;20417;-83
2022/10/30 10:34:10;;;;;;;6.20;3.87;;;25.40;99.90;;;;;;5041785;28;20420;-83
2022/10/30 10:36:57;;;;;;;6.83;4.33;;;25.70;99.90;;;;;;5042311;28;20475;-82
2022/10/30 10:39:50;;;;;;;5.80;4.00;;;25.10;99.90;;;;;;5043587;28;20827;-83
2022/10/30 10:42:22;;;;;;;5.00;4.07;;;23.70;99.90;;;;;;5042275;28;20432;-82
2022/10/30 10:44:53;;;;;;;8.27;4.00;;;23.30;99.90;;;;;;5021773;28;20968;-84
2022/10/30 10:47:58;;;;;;;10.97;3.53;;;23.00;99.90;;;;;;5041072;28;20417;-83
2022/10/30 10:50:26;;;;;;;6.93;4.27;;;23.20;1.00;;;;;;5038394;28;20543;-81
2022/10/30 10:52:54;;;;;;;9.50;5.33;;;23.60;99.90;;;;;;5042061;28;20412;-86
2022/10/30 10:55:27;;;;;;;6.83;4.10;;;22.80;1.00;;;;;;5042917;28;20428;-83
2022/10/30 10:57:56;;;;;;;6.37;3.90;;;22.80;1.00;;;;;;5042485;28;20461;-82
2022/10/30 11:00:22;;;;;;;7.43;3.50;;;22.70;53.50;;;;;;5046552;28;20511;-82
2022/10/30 11:03:18;;;;;;;11.10;4.13;;;22.30;99.90;;;;;;5052798;28;20416;-82
2022/10/30 11:05:52;;;;;;;10.10;4.47;;;21.80;1.00;;;;;;5053268;28;20499;-82
2022/10/30 11:08:24;;;;;;;6.87;4.07;;;21.70;99.90;;;;;;5052956;28;20407;-81
2022/10/30 11:10:56;;;;;;;8.67;5.70;;;21.90;1.00;;;;;;5053133;28;20507;-81
2022/10/30 11:13:26;;;;;;;9.03;4.47;;;22.20;1.00;;;;;;5052644;28;20444;-82
2022/10/30 11:16:05;;;;;;;7.90;4.00;;;22.20;66.10;;;;;;5052936;28;20416;-82
2022/10/30 11:18:32;;;;;;;7.70;5.10;;;22.60;63.90;;;;;;5051727;28;20460;-84
2022/10/30 11:21:02;;;;;;;6.50;3.83;;;23.00;1.00;;;;;;5052932;28;20416;-82
2022/10/30 11:23:33;;;;;;;6.50;3.57;;;22.50;99.90;;;;;;5052918;28;20503;-82
2022/10/30 11:26:00;;;;;;;7.33;4.40;;;22.10;1.00;;;;;;5052827;28;20425;-83
2022/10/30 11:28:35;;;;;;;7.83;3.67;;;21.70;99.90;;;;;;5052439;28;20473;-82
2022/10/30 11:31:21;;;;;;;8.33;4.47;;;21.60;1.00;;;;;;5052953;28;20407;-82
2022/10/30 11:33:48;;;;;;;7.17;4.20;;;21.70;99.90;;;;;;5052558;28;20427;-81
2022/10/30 11:36:16;;;;;;;7.83;3.80;;;21.70;41.30;;;;;;5052753;28;20412;-82
2022/10/30 11:38:42;;;;;;;6.60;3.43;;;21.60;10.00;;;;;;5052656;28;20474;-85
2022/10/30 11:41:11;;;;;;;7.30;3.70;;;21.40;99.90;;;;;;5052566;28;20856;-82
2022/10/30 11:43:38;;;;;;;9.83;4.60;;;21.30;1.00;;;;;;5052273;28;20275;-85
2022/10/30 11:46:08;;;;;;;6.30;4.57;;;21.40;99.90;;;;;;5052596;28;20403;-82
2022/10/30 11:48:38;;;;;;;5.50;3.63;;;21.60;99.90;;;;;;5052545;28;20443;-82
2022/10/30 11:51:04;;;;;;;5.33;3.20;;;21.40;1.00;;;;;;5052542;28;20465;-85
2022/10/30 11:53:40;;;;;;;5.60;3.13;;;21.20;1.00;;;;;;5052640;28;20955;-84
2022/10/30 11:56:18;;;;;;;9.13;3.30;;;21.60;1.00;;;;;;5052626;28;20551;-87
2022/10/30 11:58:46;;;;;;;8.80;4.00;;;21.80;99.90;;;;;;5052147;28;20827;-82
2022/10/30 12:01:34;;;;;;;8.00;4.33;;;21.70;99.90;;;;;;5052577;28;20461;-82
2022/10/30 12:04:35;;;;;;;7.30;3.50;;;21.50;1.00;;;;;;5052509;28;20408;-82
2022/10/30 12:07:19;;;;;;;4.83;3.40;;;21.70;99.90;;;;;;5011571;28;20434;-83
2022/10/30 12:09:46;;;;;;;5.47;3.20;;;21.50;99.90;;;;;;5052765;28;20916;-85
2022/10/30 12:12:23;;;;;;;7.07;3.20;;;21.60;1.00;;;;;;5055199;28;20424;-86
2022/10/30 12:14:50;;;;;;;5.10;3.90;;;21.70;99.90;;;;;;5056076;28;20475;-82
2022/10/30 12:17:17;;;;;;;9.53;4.33;;;21.60;1.00;;;;;;5056233;28;20447;-81
2022/10/30 12:19:49;;;;;;;7.83;3.90;;;21.60;99.90;;;;;;5056733;28;20463;-87
2022/10/30 12:22:30;;;;;;;6.13;3.50;;;21.70;1.00;;;;;;5057049;28;20439;-83
2022/10/30 12:24:58;;;;;;;7.60;4.00;;;21.70;1.00;;;;;;5056555;28;20790;-83
2022/10/30 12:27:25;;;;;;;8.00;3.53;;;21.70;99.90;;;;;;5056846;28;20430;-81
2022/10/30 12:30:04;;;;;;;5.87;3.47;;;21.90;1.00;;;;;;5051265;28;20413;-82
2022/10/30 12:33:04;;;;;;;10.97;4.60;;;21.90;99.90;;;;;;5036576;28;20409;-83
2022/10/30 12:35:40;;;;;;;11.57;3.87;;;21.80;99.90;;;;;;5036706;28;20508;-90
2022/10/30 12:38:29;;;;;;;9.00;3.80;;;21.60;99.90;;;;;;5036403;28;20448;-82
2022/10/30 12:41:12;;;;;;;6.90;3.00;;;21.40;1.00;;;;;;5036808;28;20417;-86
2022/10/30 12:43:40;;;;;;;7.13;4.57;;;21.40;99.90;;;;;;5018282;28;20421;-85
2022/10/30 12:46:32;;;;;;;6.57;3.90;;;21.40;71.80;;;;;;5036752;28;20400;-90
2022/10/30 12:49:14;;;;;;;9.40;3.60;;;21.30;1.00;;;;;;5033516;28;20436;-83
2022/10/30 12:52:00;;;;;;;6.70;3.40;;;21.30;99.90;;;;;;5044620;28;20425;-84
2022/10/30 12:54:42;;;;;;;6.90;3.80;;;21.20;1.00;;;;;;5053089;28;20434;-87
2022/10/30 12:57:14;;;;;;;6.97;3.67;;;21.10;1.00;;;;;;5040163;28;20420;-83